createdAt,value
2022-11-20T00:00:04.300Z,100911.69
2022-11-20T00:00:17.844Z,100914.31
2022-11-20T00:00:53.246Z,100916.09
2022-11-20T00:01:07.648Z,100915.25
2022-11-20T00:01:22.146Z,100920.53
2022-11-20T00:01:35.140Z,100907.25
2022-11-20T00:01:47.839Z,100914.31
2022-11-20T00:02:01.579Z,100915.25
2022-11-20T00:02:14.303Z,100916.94
2022-11-20T00:02:26.997Z,100916.09
2022-11-20T00:02:39.794Z,100911.72
2022-11-20T00:02:52.430Z,100916.09
2022-11-20T00:03:05.101Z,100910.81
2022-11-20T00:03:18.262Z,100914.38
2022-11-20T00:03:30.864Z,100907.34
2022-11-20T00:03:44.879Z,100909.97
2022-11-20T00:03:58.870Z,100907.34
2022-11-20T00:04:12.119Z,100911.69
2022-11-20T00:04:24.705Z,100908.25
2022-11-20T00:04:37.296Z,100909.09
2022-11-20T00:04:50.038Z,100915.25
2022-11-20T00:05:02.628Z,100908.25
2022-11-20T00:05:15.252Z,100918.78
2022-11-20T00:05:28.865Z,100918.78
2022-11-20T00:05:41.958Z,100917.09
2022-11-20T00:05:54.550Z,100911.81
2022-11-20T00:06:09.106Z,100911.81
2022-11-20T00:06:23.221Z,100920.53
2022-11-20T00:06:35.946Z,100917.94
2022-11-20T00:06:49.527Z,100918.78
2022-11-20T00:07:02.182Z,100914.38
2022-11-20T00:07:14.980Z,100914.38
2022-11-20T00:07:27.640Z,100912.63
2022-11-20T00:07:40.274Z,100914.38
2022-11-20T00:07:52.899Z,100909.97
2022-11-20T00:08:05.972Z,100917.00
2022-11-20T00:08:19.574Z,100916.09
2022-11-20T00:08:32.487Z,100919.59
2022-11-20T00:08:45.704Z,100918.69
2022-11-20T00:08:59.768Z,100920.44
2022-11-20T00:09:12.394Z,100916.06
2022-11-20T00:09:25.114Z,100916.09
2022-11-20T00:09:38.716Z,100915.13
2022-11-20T00:09:51.555Z,100923.03
2022-11-20T00:10:04.810Z,100920.38
2022-11-20T00:10:17.498Z,100918.59
2022-11-20T00:10:30.078Z,100920.38
2022-11-20T00:10:42.665Z,100916.06
2022-11-20T00:10:55.268Z,100917.81
2022-11-20T00:11:15.275Z,100913.53
2022-11-20T00:11:31.453Z,100920.53
2022-11-20T00:11:44.130Z,100923.97
2022-11-20T00:11:56.709Z,100922.22
2022-11-20T00:12:09.364Z,100924.84
2022-11-20T00:12:22.040Z,100917.88
2022-11-20T00:12:34.827Z,100917.81
2022-11-20T00:12:47.418Z,100916.94
2022-11-20T00:13:00.089Z,100921.38
2022-11-20T00:13:12.686Z,100917.00
2022-11-20T00:13:26.259Z,100917.00
2022-11-20T00:13:39.536Z,100923.16
2022-11-20T00:13:55.317Z,100918.84
2022-11-20T00:14:07.951Z,100917.00
2022-11-20T00:14:20.914Z,100921.41
2022-11-20T00:14:33.535Z,100916.16
2022-11-20T00:14:47.097Z,100915.25
2022-11-20T00:14:59.742Z,100920.53
2022-11-20T00:15:12.324Z,100918.75
2022-11-20T00:15:25.418Z,100915.25
2022-11-20T00:15:38.002Z,100921.38
2022-11-20T00:15:58.071Z,100921.31
2022-11-20T00:16:15.502Z,100922.22
2022-11-20T00:16:32.109Z,100924.81
2022-11-20T00:16:44.672Z,100919.53
2022-11-20T00:16:57.248Z,100921.31
2022-11-20T00:17:10.137Z,100916.94
2022-11-20T00:17:22.737Z,100916.06
2022-11-20T00:17:35.327Z,100921.31
2022-11-20T00:17:48.939Z,100916.94
2022-11-20T00:18:01.588Z,100922.22
2022-11-20T00:18:14.210Z,100919.59
2022-11-20T00:18:27.112Z,100914.31
2022-11-20T00:18:39.742Z,100922.22
2022-11-20T00:18:53.120Z,100912.63
2022-11-20T00:19:07.156Z,100917.00
2022-11-20T00:19:20.265Z,100916.16
2022-11-20T00:19:33.090Z,100913.53
2022-11-20T00:19:45.677Z,100913.53
2022-11-20T00:19:58.246Z,100914.44
2022-11-20T00:20:12.231Z,100914.44
2022-11-20T00:20:26.020Z,100917.94
2022-11-20T00:20:38.606Z,100918.78
2022-11-20T00:20:51.188Z,100913.56
2022-11-20T00:21:05.061Z,100912.66
2022-11-20T00:21:19.802Z,100916.16
2022-11-20T00:21:35.733Z,100913.53
2022-11-20T00:21:48.342Z,100917.00
2022-11-20T00:22:00.936Z,100915.25
2022-11-20T00:22:13.500Z,100914.38
2022-11-20T00:22:26.155Z,100910.88
2022-11-20T00:22:38.743Z,100916.16
2022-11-20T00:22:51.772Z,100913.53
2022-11-20T00:23:04.376Z,100912.72
2022-11-20T00:23:17.994Z,100918.78
2022-11-20T00:23:30.998Z,100917.09
2022-11-20T00:23:44.065Z,100911.81
2022-11-20T00:23:58.348Z,100917.94
2022-11-20T00:24:11.471Z,100910.94
2022-11-20T00:24:25.063Z,100914.44
2022-11-20T00:24:41.759Z,100916.19
2022-11-20T00:24:55.674Z,100912.72
2022-11-20T00:25:08.813Z,100915.34
2022-11-20T00:25:21.460Z,100916.19
2022-11-20T00:25:35.537Z,100918.84
2022-11-20T00:25:48.585Z,100917.09
2022-11-20T00:26:05.545Z,100915.34
2022-11-20T00:26:19.761Z,100918.84
2022-11-20T00:26:32.466Z,100917.09
2022-11-20T00:26:45.194Z,100917.09
2022-11-20T00:26:57.778Z,100917.09
2022-11-20T00:27:10.389Z,100925.00
2022-11-20T00:27:24.201Z,100918.94
2022-11-20T00:27:36.829Z,100924.13
2022-11-20T00:27:49.399Z,100920.63
2022-11-20T00:28:01.970Z,100910.09
2022-11-20T00:28:14.540Z,100920.63
2022-11-20T00:28:27.140Z,100920.63
2022-11-20T00:28:40.858Z,100924.13
2022-11-20T00:28:55.401Z,100923.22
2022-11-20T00:29:10.672Z,100918.78
2022-11-20T00:29:23.388Z,100922.28
2022-11-20T00:29:36.136Z,100917.94
2022-11-20T00:29:48.725Z,100918.84
2022-11-20T00:30:02.323Z,100928.47
2022-11-20T00:30:15.376Z,100919.72
2022-11-20T00:30:28.097Z,100918.03
2022-11-20T00:30:40.674Z,100925.91
2022-11-20T00:31:01.718Z,100919.78
2022-11-20T00:31:16.467Z,100928.53
2022-11-20T00:31:30.318Z,100924.19
2022-11-20T00:31:43.893Z,100918.94
2022-11-20T00:31:56.543Z,100919.78
2022-11-20T00:32:09.142Z,100924.19
2022-11-20T00:32:21.751Z,100923.31
2022-11-20T00:32:34.492Z,100921.56
2022-11-20T00:32:47.169Z,100925.09
2022-11-20T00:32:59.837Z,100925.91
2022-11-20T00:33:13.692Z,100931.16
2022-11-20T00:33:26.311Z,100922.34
2022-11-20T00:33:39.460Z,100925.91
2022-11-20T00:33:52.241Z,100918.94
2022-11-20T00:34:04.951Z,100912.72
2022-11-20T00:34:17.533Z,100918.84
2022-11-20T00:34:31.130Z,100930.25
2022-11-20T00:34:43.696Z,100919.72
2022-11-20T00:34:56.260Z,100926.69
2022-11-20T00:35:08.999Z,100923.25
2022-11-20T00:35:21.598Z,100926.75
2022-11-20T00:35:34.228Z,100918.84
2022-11-20T00:35:46.815Z,100922.34
2022-11-20T00:36:03.375Z,100921.41
2022-11-20T00:36:19.541Z,100927.63
2022-11-20T00:36:35.102Z,100923.25
2022-11-20T00:36:47.682Z,100920.56
2022-11-20T00:37:00.283Z,100925.84
2022-11-20T00:37:12.876Z,100917.94
2022-11-20T00:37:25.514Z,100928.47
2022-11-20T00:37:38.466Z,100919.72
2022-11-20T00:37:52.253Z,100924.91
2022-11-20T00:38:04.835Z,100921.41
2022-11-20T00:38:17.400Z,100926.75
2022-11-20T00:38:29.986Z,100916.16
2022-11-20T00:38:43.056Z,100924.06
2022-11-20T00:38:57.487Z,100920.53
2022-11-20T00:39:10.103Z,100925.78
2022-11-20T00:39:23.984Z,100923.16
2022-11-20T00:39:36.665Z,100926.66
2022-11-20T00:39:49.293Z,100922.28
2022-11-20T00:40:01.912Z,100919.63
2022-11-20T00:40:14.572Z,100924.91
2022-11-20T00:40:27.164Z,100922.22
2022-11-20T00:40:39.772Z,100924.84
2022-11-20T00:40:57.703Z,100918.69
2022-11-20T00:41:12.156Z,100916.94
2022-11-20T00:41:26.221Z,100917.81
2022-11-20T00:41:38.818Z,100917.81
2022-11-20T00:41:51.381Z,100917.81
2022-11-20T00:42:05.465Z,100919.53
2022-11-20T00:42:18.055Z,100921.31
2022-11-20T00:42:31.994Z,100918.69
2022-11-20T00:42:44.613Z,100924.00
2022-11-20T00:42:57.240Z,100920.53
2022-11-20T00:43:09.823Z,100915.25
2022-11-20T00:43:22.409Z,100908.25
2022-11-20T00:43:36.421Z,100914.38
2022-11-20T00:43:49.097Z,100916.16
2022-11-20T00:44:01.726Z,100917.94
2022-11-20T00:44:14.313Z,100920.53
2022-11-20T00:44:26.909Z,100920.53
2022-11-20T00:44:39.662Z,100920.53
2022-11-20T00:44:52.318Z,100913.53
2022-11-20T00:45:06.897Z,100918.78
2022-11-20T00:45:19.625Z,100917.00
2022-11-20T00:45:32.260Z,100914.44
2022-11-20T00:45:44.858Z,100917.09
2022-11-20T00:45:59.879Z,100914.44
2022-11-20T00:46:15.147Z,100910.94
2022-11-20T00:46:29.785Z,100915.34
2022-11-20T00:46:42.662Z,100912.72
2022-11-20T00:46:55.227Z,100914.50
2022-11-20T00:47:07.821Z,100918.94
2022-11-20T00:47:20.416Z,100913.66
2022-11-20T00:47:33.030Z,100920.69
2022-11-20T00:47:45.649Z,100917.19
2022-11-20T00:47:58.203Z,100912.84
2022-11-20T00:48:11.769Z,100914.63
2022-11-20T00:48:24.365Z,100912.00
2022-11-20T00:48:37.131Z,100910.31
2022-11-20T00:48:50.197Z,100910.31
2022-11-20T00:49:02.810Z,100914.69
2022-11-20T00:49:15.409Z,100911.19
2022-11-20T00:49:29.000Z,100912.09
2022-11-20T00:49:41.596Z,100915.59
2022-11-20T00:49:54.209Z,100911.19
2022-11-20T00:50:07.479Z,100915.59
2022-11-20T00:50:20.098Z,100913.84
2022-11-20T00:50:32.669Z,100916.47
2022-11-20T00:50:45.301Z,100917.31
2022-11-20T00:50:58.392Z,100912.97
2022-11-20T00:51:15.001Z,100911.19
2022-11-20T00:51:28.478Z,100911.19
2022-11-20T00:51:41.187Z,100915.59
2022-11-20T00:51:53.876Z,100909.47
2022-11-20T00:52:06.505Z,100913.88
2022-11-20T00:52:19.232Z,100915.69
2022-11-20T00:52:31.954Z,100914.75
2022-11-20T00:52:44.668Z,100919.16
2022-11-20T00:52:58.295Z,100917.38
2022-11-20T00:53:11.009Z,100916.53
2022-11-20T00:53:23.762Z,100913.88
2022-11-20T00:53:36.382Z,100916.47
2022-11-20T00:53:49.549Z,100920.00
2022-11-20T00:54:03.099Z,100919.97
2022-11-20T00:54:15.752Z,100914.69
2022-11-20T00:54:28.327Z,100917.31
2022-11-20T00:54:41.956Z,100918.22
2022-11-20T00:54:54.548Z,100916.38
2022-11-20T00:55:07.884Z,100908.63
2022-11-20T00:55:20.444Z,100917.31
2022-11-20T00:55:33.049Z,100915.50
2022-11-20T00:55:54.559Z,100916.34
2022-11-20T00:56:11.721Z,100924.25
2022-11-20T00:56:24.332Z,100919.91
2022-11-20T00:56:37.016Z,100917.31
2022-11-20T00:56:49.592Z,100915.59
2022-11-20T00:57:02.186Z,100916.47
2022-11-20T00:57:15.803Z,100912.06
2022-11-20T00:57:28.390Z,100922.59
2022-11-20T00:57:41.042Z,100912.06
2022-11-20T00:57:53.612Z,100922.59
2022-11-20T00:58:09.063Z,100919.97
2022-11-20T00:58:29.359Z,100915.59
2022-11-20T00:58:45.479Z,100916.38
2022-11-20T00:59:00.901Z,100914.69
2022-11-20T00:59:13.637Z,100913.75
2022-11-20T00:59:26.378Z,100912.06
2022-11-20T00:59:38.949Z,100919.91
2022-11-20T00:59:51.526Z,100914.69
2022-11-20T01:00:06.139Z,100916.47
2022-11-20T01:00:19.087Z,100916.53
2022-11-20T01:00:31.945Z,100910.41
2022-11-20T01:00:44.624Z,100913.03
2022-11-20T01:01:03.225Z,100915.69
2022-11-20T01:01:17.786Z,100912.09
2022-11-20T01:01:32.024Z,100915.59
2022-11-20T01:01:44.655Z,100916.53
2022-11-20T01:01:57.234Z,100918.22
2022-11-20T01:02:09.871Z,100920.88
2022-11-20T01:02:22.494Z,100913.88
2022-11-20T01:02:35.106Z,100913.88
2022-11-20T01:02:47.843Z,100917.44
2022-11-20T01:03:00.431Z,100918.31
2022-11-20T01:03:13.029Z,100907.78
2022-11-20T01:03:27.251Z,100917.44
2022-11-20T01:03:41.870Z,100916.53
2022-11-20T01:03:57.986Z,100916.53
2022-11-20T01:04:10.565Z,100913.88
2022-11-20T01:04:23.195Z,100915.59
2022-11-20T01:04:35.839Z,100912.16
2022-11-20T01:04:48.728Z,100919.16
2022-11-20T01:05:02.293Z,100919.09
2022-11-20T01:05:15.051Z,100913.03
2022-11-20T01:05:27.885Z,100916.53
2022-11-20T01:05:40.481Z,100921.84
2022-11-20T01:05:53.097Z,100916.56
2022-11-20T01:06:08.099Z,100915.72
2022-11-20T01:06:23.177Z,100913.16
2022-11-20T01:06:38.489Z,100918.50
2022-11-20T01:06:51.093Z,100919.25
2022-11-20T01:07:03.793Z,100916.63
2022-11-20T01:07:16.487Z,100914.00
2022-11-20T01:07:29.225Z,100916.75
2022-11-20T01:07:41.871Z,100913.22
2022-11-20T01:07:54.479Z,100916.72
2022-11-20T01:08:07.079Z,100916.72
2022-11-20T01:08:20.681Z,100915.84
2022-11-20T01:08:34.205Z,100915.06
2022-11-20T01:08:47.633Z,100912.44
2022-11-20T01:09:04.459Z,100915.06
2022-11-20T01:09:18.269Z,100910.63
2022-11-20T01:09:31.165Z,100916.81
2022-11-20T01:09:43.770Z,100918.50
2022-11-20T01:09:56.354Z,100916.75
2022-11-20T01:10:09.577Z,100916.72
2022-11-20T01:10:22.237Z,100915.84
2022-11-20T01:10:34.804Z,100909.66
2022-11-20T01:10:47.413Z,100911.44
2022-11-20T01:11:01.250Z,100909.72
2022-11-20T01:11:17.232Z,100914.13
2022-11-20T01:11:32.190Z,100908.06
2022-11-20T01:11:46.528Z,100911.50
2022-11-20T01:12:00.144Z,100910.69
2022-11-20T01:12:12.753Z,100909.00
2022-11-20T01:12:26.378Z,100911.63
2022-11-20T01:12:39.031Z,100910.69
2022-11-20T01:13:11.639Z,100908.09
2022-11-20T01:13:39.042Z,100908.09
2022-11-20T01:13:53.238Z,100907.25
2022-11-20T01:14:07.941Z,100907.25
2022-11-20T01:14:22.283Z,100910.75
2022-11-20T01:14:34.977Z,100909.00
2022-11-20T01:14:48.587Z,100905.41
2022-11-20T01:15:01.168Z,100903.72
2022-11-20T01:15:13.782Z,100906.34
2022-11-20T01:15:26.371Z,100911.63
2022-11-20T01:15:39.127Z,100909.00
2022-11-20T01:15:51.709Z,100911.50
2022-11-20T01:16:08.329Z,100901.09
2022-11-20T01:16:23.559Z,100907.16
2022-11-20T01:16:38.111Z,100907.16
2022-11-20T01:16:52.173Z,100902.78
2022-11-20T01:17:05.758Z,100907.16
2022-11-20T01:17:18.350Z,100905.41
2022-11-20T01:17:32.169Z,100906.28
2022-11-20T01:17:44.754Z,100905.41
2022-11-20T01:17:57.359Z,100899.28
2022-11-20T01:18:09.955Z,100900.16
2022-11-20T01:18:22.538Z,100901.94
2022-11-20T01:18:35.489Z,100909.84
2022-11-20T01:18:51.634Z,100899.28
2022-11-20T01:19:06.451Z,100899.28
2022-11-20T01:19:21.303Z,100904.53
2022-11-20T01:19:34.214Z,100901.94
2022-11-20T01:19:49.854Z,100905.41
2022-11-20T01:20:03.466Z,100905.41
2022-11-20T01:20:16.110Z,100903.59
2022-11-20T01:20:28.706Z,100908.00
2022-11-20T01:20:41.305Z,100906.22
2022-11-20T01:20:53.910Z,100909.78
2022-11-20T01:21:09.509Z,100891.34
2022-11-20T01:21:23.689Z,100897.50
2022-11-20T01:21:38.296Z,100906.28
2022-11-20T01:21:54.126Z,100896.66
2022-11-20T01:22:06.700Z,100897.50
2022-11-20T01:22:19.332Z,100894.94
2022-11-20T01:22:31.955Z,100897.50
2022-11-20T01:22:44.577Z,100900.16
2022-11-20T01:22:57.160Z,100894.88
2022-11-20T01:23:09.759Z,100900.16
2022-11-20T01:23:22.380Z,100905.41
2022-11-20T01:23:36.812Z,100896.63
2022-11-20T01:23:51.709Z,100893.19
2022-11-20T01:24:06.097Z,100895.72
2022-11-20T01:24:20.221Z,100895.72
2022-11-20T01:24:32.977Z,100896.66
2022-11-20T01:24:45.579Z,100892.38
2022-11-20T01:24:59.155Z,100897.56
2022-11-20T01:25:11.773Z,100891.44
2022-11-20T01:25:24.379Z,100891.44
2022-11-20T01:25:37.008Z,100899.34
2022-11-20T01:25:49.600Z,100897.56
2022-11-20T01:26:03.648Z,100898.44
2022-11-20T01:26:17.998Z,100897.56
2022-11-20T01:26:33.833Z,100903.72
2022-11-20T01:26:48.939Z,100894.03
2022-11-20T01:27:01.637Z,100896.72
2022-11-20T01:27:14.260Z,100902.00
2022-11-20T01:27:26.950Z,100894.09
2022-11-20T01:27:39.518Z,100894.09
2022-11-20T01:27:52.249Z,100896.72
2022-11-20T01:28:06.144Z,100896.72
2022-11-20T01:28:18.737Z,100895.00
2022-11-20T01:28:32.113Z,100904.63
2022-11-20T01:28:44.763Z,100900.28
2022-11-20T01:28:58.272Z,100894.13
2022-11-20T01:29:15.883Z,100893.28
2022-11-20T01:29:28.512Z,100895.91
2022-11-20T01:29:41.098Z,100897.66
2022-11-20T01:29:58.244Z,100895.88
2022-11-20T01:30:14.227Z,100899.34
2022-11-20T01:30:27.010Z,100895.88
2022-11-20T01:30:40.592Z,100898.44
2022-11-20T01:30:53.205Z,100900.16
2022-11-20T01:31:14.231Z,100896.72
2022-11-20T01:31:29.918Z,100902.00
2022-11-20T01:31:43.023Z,100901.13
2022-11-20T01:31:56.649Z,100896.72
2022-11-20T01:32:09.225Z,100893.19
2022-11-20T01:32:21.813Z,100899.28
2022-11-20T01:32:34.663Z,100901.09
2022-11-20T01:32:47.260Z,100901.09
2022-11-20T01:32:59.842Z,100900.19
2022-11-20T01:33:12.434Z,100897.56
2022-11-20T01:33:25.282Z,100897.56
2022-11-20T01:33:37.912Z,100901.09
2022-11-20T01:33:53.635Z,100904.56
2022-11-20T01:34:08.197Z,100899.34
2022-11-20T01:34:23.123Z,100902.00
2022-11-20T01:34:35.885Z,100897.66
2022-11-20T01:34:48.479Z,100902.84
2022-11-20T01:35:01.175Z,100895.00
2022-11-20T01:35:13.897Z,100902.00
2022-11-20T01:35:26.497Z,100899.34
2022-11-20T01:35:40.103Z,100903.81
2022-11-20T01:35:53.135Z,100905.56
2022-11-20T01:36:07.206Z,100902.03
2022-11-20T01:36:22.248Z,100903.81
2022-11-20T01:36:36.605Z,100906.41
2022-11-20T01:36:50.831Z,100901.19
2022-11-20T01:37:03.447Z,100910.81
2022-11-20T01:37:16.272Z,100900.28
2022-11-20T01:37:28.854Z,100898.50
2022-11-20T01:37:41.423Z,100900.28
2022-11-20T01:37:54.005Z,100901.13
2022-11-20T01:38:06.589Z,100907.25
2022-11-20T01:38:21.072Z,100903.81
2022-11-20T01:38:33.727Z,100907.31
2022-11-20T01:38:48.102Z,100904.66
2022-11-20T01:39:03.010Z,100909.03
2022-11-20T01:39:17.698Z,100907.25
2022-11-20T01:39:30.413Z,100903.72
2022-11-20T01:39:43.028Z,100907.19
2022-11-20T01:39:55.616Z,100902.00
2022-11-20T01:40:09.236Z,100903.72
2022-11-20T01:40:22.840Z,100903.72
2022-11-20T01:40:35.454Z,100904.63
2022-11-20T01:40:55.801Z,100902.91
2022-11-20T01:41:09.212Z,100903.81
2022-11-20T01:41:41.920Z,100908.19
2022-11-20T01:42:14.249Z,100903.81
2022-11-20T01:42:45.745Z,100909.09
2022-11-20T01:43:22.703Z,100909.09
2022-11-20T01:43:35.683Z,100906.44
2022-11-20T01:43:48.276Z,100904.66
2022-11-20T01:44:01.522Z,100905.56
2022-11-20T01:44:16.772Z,100909.88
2022-11-20T01:44:58.274Z,100910.81
2022-11-20T01:45:44.005Z,100915.22
2022-11-20T01:46:17.767Z,100910.81
2022-11-20T01:46:31.304Z,100909.88
2022-11-20T01:46:54.011Z,100905.56
2022-11-20T01:47:10.202Z,100908.19
2022-11-20T01:47:28.353Z,100905.56
2022-11-20T01:47:43.550Z,100903.81
2022-11-20T01:47:56.250Z,100908.25
2022-11-20T01:48:09.934Z,100906.44
2022-11-20T01:48:24.168Z,100905.59
2022-11-20T01:48:45.184Z,100905.66
2022-11-20T01:49:01.789Z,100906.44
2022-11-20T01:49:18.970Z,100902.91
2022-11-20T01:49:40.449Z,100903.81
2022-11-20T01:49:57.812Z,100907.25
2022-11-20T01:50:15.759Z,100904.63
2022-11-20T01:50:29.990Z,100901.19
2022-11-20T01:50:43.422Z,100902.91
2022-11-20T01:50:56.491Z,100900.28
2022-11-20T01:51:18.933Z,100907.25
2022-11-20T01:51:36.361Z,100910.81
2022-11-20T01:51:53.792Z,100906.41
2022-11-20T01:52:12.256Z,100901.13
2022-11-20T01:52:28.877Z,100907.25
2022-11-20T01:52:47.633Z,100909.00
2022-11-20T01:53:03.479Z,100905.41
2022-11-20T01:53:19.904Z,100910.69
2022-11-20T01:53:35.671Z,100902.78
2022-11-20T01:53:49.340Z,100910.69
2022-11-20T01:54:06.311Z,100905.47
2022-11-20T01:54:25.381Z,100909.00
2022-11-20T01:54:44.029Z,100902.84
2022-11-20T01:55:01.328Z,100909.84
2022-11-20T01:55:18.727Z,100909.78
2022-11-20T01:55:34.895Z,100910.69
2022-11-20T01:55:53.645Z,100910.69
2022-11-20T01:56:11.065Z,100908.91
2022-11-20T01:56:24.818Z,100912.44
2022-11-20T01:56:42.012Z,100911.63
2022-11-20T01:56:58.804Z,100903.72
2022-11-20T01:57:13.645Z,100908.06
2022-11-20T01:57:30.327Z,100902.84
2022-11-20T01:57:45.147Z,100906.41
2022-11-20T01:57:59.063Z,100910.69
2022-11-20T01:58:12.548Z,100902.84
2022-11-20T01:58:28.867Z,100910.69
2022-11-20T01:58:47.908Z,100911.53
2022-11-20T01:59:04.206Z,100908.06
2022-11-20T01:59:20.573Z,100909.00
2022-11-20T01:59:34.764Z,100902.78
2022-11-20T01:59:54.244Z,100903.72
2022-11-20T02:00:10.689Z,100906.28
2022-11-20T02:00:24.533Z,100903.72
2022-11-20T02:00:37.219Z,100904.53
2022-11-20T02:00:49.987Z,100908.00
2022-11-20T02:01:04.792Z,100901.88
2022-11-20T02:01:19.954Z,100907.16
2022-11-20T02:01:33.740Z,100902.78
2022-11-20T02:01:46.962Z,100910.69
2022-11-20T02:01:59.724Z,100904.63
2022-11-20T02:02:12.345Z,100902.00
2022-11-20T02:02:25.235Z,100906.34
2022-11-20T02:02:39.170Z,100903.72
2022-11-20T02:02:58.439Z,100908.09
2022-11-20T02:03:15.591Z,100909.88
2022-11-20T02:03:28.995Z,100901.13
2022-11-20T02:03:42.755Z,100903.78
2022-11-20T02:03:55.750Z,100900.28
2022-11-20T02:04:09.513Z,100904.63
2022-11-20T02:04:22.952Z,100903.72
2022-11-20T02:04:36.631Z,100905.47
2022-11-20T02:04:52.806Z,100903.72
2022-11-20T02:05:13.238Z,100905.47
2022-11-20T02:05:30.174Z,100906.34
2022-11-20T02:05:48.384Z,100903.72
2022-11-20T02:06:08.375Z,100901.09
2022-11-20T02:06:26.272Z,100909.00
2022-11-20T02:06:43.808Z,100894.88
2022-11-20T02:07:00.665Z,100904.56
2022-11-20T02:07:14.528Z,100898.50
2022-11-20T02:07:27.667Z,100903.72
2022-11-20T02:07:41.391Z,100895.88
2022-11-20T02:07:56.595Z,100898.44
2022-11-20T02:08:10.560Z,100899.34
2022-11-20T02:08:24.320Z,100895.88
2022-11-20T02:08:38.717Z,100902.00
2022-11-20T02:08:53.114Z,100897.56
2022-11-20T02:09:05.719Z,100894.09
2022-11-20T02:09:18.644Z,100901.94
2022-11-20T02:09:31.580Z,100903.72
2022-11-20T02:09:44.414Z,100895.00
2022-11-20T02:09:58.996Z,100899.34
2022-11-20T02:10:12.813Z,100902.00
2022-11-20T02:10:25.933Z,100895.00
2022-11-20T02:10:38.818Z,100894.94
2022-11-20T02:10:51.446Z,100896.72
2022-11-20T02:11:04.101Z,100896.72
2022-11-20T02:11:17.708Z,100896.72
2022-11-20T02:11:31.865Z,100895.81
2022-11-20T02:11:44.503Z,100887.91
2022-11-20T02:11:58.712Z,100898.44
2022-11-20T02:12:31.717Z,100894.88
2022-11-20T02:13:02.850Z,100894.88
2022-11-20T02:13:34.392Z,100894.09
2022-11-20T02:13:48.057Z,100892.28
2022-11-20T02:14:01.275Z,100891.44
2022-11-20T02:14:15.760Z,100897.56
2022-11-20T02:14:29.309Z,100897.66
2022-11-20T02:14:42.919Z,100890.59
2022-11-20T02:14:55.809Z,100892.38
2022-11-20T02:15:09.026Z,100891.44
2022-11-20T02:15:24.097Z,100898.50
2022-11-20T02:15:41.161Z,100896.72
2022-11-20T02:15:54.066Z,100893.19
2022-11-20T02:16:09.804Z,100888.81
2022-11-20T02:16:27.342Z,100893.19
2022-11-20T02:16:46.040Z,100898.44
2022-11-20T02:16:58.681Z,100893.19
2022-11-20T02:17:11.287Z,100890.47
2022-11-20T02:17:25.024Z,100887.91
2022-11-20T02:17:37.925Z,100883.50
2022-11-20T02:17:50.605Z,100891.34
2022-11-20T02:18:03.692Z,100887.78
2022-11-20T02:18:18.836Z,100883.34
2022-11-20T02:18:32.946Z,100888.72
2022-11-20T02:18:46.762Z,100886.13
2022-11-20T02:19:02.799Z,100886.06
2022-11-20T02:19:23.724Z,100887.81
2022-11-20T02:19:36.706Z,100892.25
2022-11-20T02:19:49.290Z,100886.97
2022-11-20T02:20:03.042Z,100891.34
2022-11-20T02:20:15.978Z,100890.47
2022-11-20T02:20:28.815Z,100888.75
2022-11-20T02:20:43.392Z,100890.47
2022-11-20T02:21:05.211Z,100894.88
2022-11-20T02:21:35.167Z,100886.13
2022-11-20T02:21:57.139Z,100878.22
2022-11-20T02:22:15.544Z,100881.75
2022-11-20T02:22:34.846Z,100888.81
2022-11-20T02:22:54.017Z,100885.38
2022-11-20T02:23:12.946Z,100884.47
2022-11-20T02:23:34.740Z,100881.84
2022-11-20T02:24:08.718Z,100888.81
2022-11-20T02:24:23.858Z,100885.31
2022-11-20T02:24:37.541Z,100881.88
2022-11-20T02:24:51.839Z,100886.31
2022-11-20T02:25:06.727Z,100888.00
2022-11-20T02:25:20.642Z,100887.22
2022-11-20T02:25:36.196Z,100884.56
2022-11-20T02:25:49.465Z,100884.56
2022-11-20T02:26:05.995Z,100884.56
2022-11-20T02:26:22.000Z,100881.09
2022-11-20T02:26:41.758Z,100880.25
2022-11-20T02:26:58.327Z,100881.09
2022-11-20T02:27:13.361Z,100881.09
2022-11-20T02:27:27.713Z,100876.66
2022-11-20T02:27:40.500Z,100878.47
2022-11-20T02:27:54.389Z,100882.88
2022-11-20T02:28:07.497Z,100878.47
2022-11-20T02:28:20.653Z,100883.78
2022-11-20T02:28:33.837Z,100882.03
2022-11-20T02:28:46.520Z,100882.88
2022-11-20T02:29:01.723Z,100878.50
2022-11-20T02:29:17.784Z,100876.75
2022-11-20T02:29:37.730Z,100875.03
2022-11-20T02:29:54.097Z,100882.94
2022-11-20T02:30:08.656Z,100884.72
2022-11-20T02:30:21.260Z,100876.81
2022-11-20T02:30:33.841Z,100878.59
2022-11-20T02:30:47.460Z,100882.94
2022-11-20T02:31:00.086Z,100879.44
2022-11-20T02:31:12.667Z,100878.50
2022-11-20T02:31:25.262Z,100879.38
2022-11-20T02:31:41.234Z,100881.16
2022-11-20T02:31:57.136Z,100880.28
2022-11-20T02:32:20.931Z,100882.94
2022-11-20T02:32:35.321Z,100877.72
2022-11-20T02:32:48.008Z,100877.72
2022-11-20T02:33:00.589Z,100884.72
2022-11-20T02:33:13.851Z,100881.22
2022-11-20T02:33:26.448Z,100878.63
2022-11-20T02:33:39.332Z,100877.72
2022-11-20T02:33:57.289Z,100885.63
2022-11-20T02:34:10.471Z,100886.53
2022-11-20T02:34:23.167Z,100881.28
2022-11-20T02:34:35.752Z,100879.53
2022-11-20T02:34:48.340Z,100884.81
2022-11-20T02:35:08.915Z,100879.69
2022-11-20T02:35:42.957Z,100876.91
2022-11-20T02:35:55.599Z,100883.97
2022-11-20T02:36:12.392Z,100879.53
2022-11-20T02:36:27.619Z,100883.13
2022-11-20T02:36:42.854Z,100881.31
2022-11-20T02:36:58.182Z,100883.13
2022-11-20T02:37:10.884Z,100885.69
2022-11-20T02:37:24.250Z,100884.81
2022-11-20T02:37:39.947Z,100885.69
2022-11-20T02:37:57.369Z,100882.19
2022-11-20T02:38:09.969Z,100881.28
2022-11-20T02:38:23.036Z,100884.75
2022-11-20T02:38:36.644Z,100886.53
2022-11-20T02:38:50.514Z,100883.06
2022-11-20T02:39:04.884Z,100885.69
2022-11-20T02:39:18.108Z,100886.53
2022-11-20T02:39:31.126Z,100880.47
2022-11-20T02:39:45.828Z,100880.47
2022-11-20T02:39:59.727Z,100877.84
2022-11-20T02:40:12.582Z,100882.19
2022-11-20T02:40:25.754Z,100883.97
2022-11-20T02:40:38.411Z,100879.53
2022-11-20T02:40:55.286Z,100879.53
2022-11-20T02:41:08.364Z,100880.44
2022-11-20T02:41:20.999Z,100887.53
2022-11-20T02:41:35.914Z,100883.13
2022-11-20T02:41:49.524Z,100883.13
2022-11-20T02:42:03.204Z,100877.84
2022-11-20T02:42:16.266Z,100882.25
2022-11-20T02:42:28.891Z,100876.13
2022-11-20T02:42:41.465Z,100882.31
2022-11-20T02:42:54.714Z,100882.31
2022-11-20T02:43:07.690Z,100882.31
2022-11-20T02:43:20.309Z,100885.78
2022-11-20T02:43:34.076Z,100886.69
2022-11-20T02:43:46.817Z,100880.53
2022-11-20T02:43:59.410Z,100881.41
2022-11-20T02:44:12.202Z,100878.78
2022-11-20T02:44:24.818Z,100880.47
2022-11-20T02:44:38.402Z,100884.03